sensor_id;sensor_type;location;lat;lon;timestamp;P1;durP1;ratioP1;P2;durP2;ratioP2
32333;SDS011;18810;53.040;8.850;2023-08-20T00:00:56;15.45;;;10.07;;
32333;SDS011;18810;53.040;8.850;2023-08-20T00:03:22;17.33;;;10.55;;
32333;SDS011;18810;53.040;8.850;2023-08-20T00:05:48;11.75;;;9.82;;
32333;SDS011;18810;53.040;8.850;2023-08-20T00:08:14;13.50;;;10.15;;
32333;SDS011;18810;53.040;8.850;2023-08-20T00:10:40;16.92;;;10.77;;
32333;SDS011;18810;53.040;8.850;2023-08-20T00:13:05;14.32;;;10.90;;
32333;SDS011;18810;53.040;8.850;2023-08-20T00:15:31;14.38;;;9.43;;
32333;SDS011;18810;53.040;8.850;2023-08-20T00:17:57;17.17;;;10.07;;
32333;SDS011;18810;53.040;8.850;2023-08-20T00:20:23;14.90;;;10.60;;
32333;SDS011;18810;53.040;8.850;2023-08-20T00:22:49;14.60;;;9.75;;
32333;SDS011;18810;53.040;8.850;2023-08-20T00:25:16;20.40;;;9.75;;
32333;SDS011;18810;53.040;8.850;2023-08-20T00:27:43;16.15;;;9.43;;
32333;SDS011;18810;53.040;8.850;2023-08-20T00:30:09;14.27;;;9.32;;
32333;SDS011;18810;53.040;8.850;2023-08-20T00:32:36;13.63;;;9.35;;
32333;SDS011;18810;53.040;8.850;2023-08-20T00:35:02;12.75;;;8.55;;
32333;SDS011;18810;53.040;8.850;2023-08-20T00:37:28;11.43;;;8.65;;
32333;SDS011;18810;53.040;8.850;2023-08-20T00:39:54;13.52;;;9.50;;
32333;SDS011;18810;53.040;8.850;2023-08-20T00:42:20;12.70;;;9.68;;
32333;SDS011;18810;53.040;8.850;2023-08-20T00:44:46;13.57;;;10.25;;
32333;SDS011;18810;53.040;8.850;2023-08-20T00:47:12;13.27;;;9.13;;
32333;SDS011;18810;53.040;8.850;2023-08-20T00:49:39;10.38;;;9.00;;
32333;SDS011;18810;53.040;8.850;2023-08-20T00:52:07;12.30;;;8.98;;
32333;SDS011;18810;53.040;8.850;2023-08-20T00:54:34;12.18;;;9.23;;
32333;SDS011;18810;53.040;8.850;2023-08-20T00:57:01;18.20;;;11.85;;
32333;SDS011;18810;53.040;8.850;2023-08-20T00:59:28;16.30;;;12.40;;
32333;SDS011;18810;53.040;8.850;2023-08-20T01:01:57;17.05;;;12.13;;
32333;SDS011;18810;53.040;8.850;2023-08-20T01:04:22;19.70;;;13.27;;
32333;SDS011;18810;53.040;8.850;2023-08-20T01:07:03;24.13;;;16.50;;
32333;SDS011;18810;53.040;8.850;2023-08-20T01:12:08;18.25;;;13.15;;
32333;SDS011;18810;53.040;8.850;2023-08-20T01:14:35;24.73;;;16.10;;
32333;SDS011;18810;53.040;8.850;2023-08-20T01:17:01;24.00;;;15.43;;
32333;SDS011;18810;53.040;8.850;2023-08-20T01:19:27;20.73;;;15.35;;
32333;SDS011;18810;53.040;8.850;2023-08-20T01:22:04;22.02;;;15.82;;
32333;SDS011;18810;53.040;8.850;2023-08-20T01:29:38;21.10;;;15.13;;
32333;SDS011;18810;53.040;8.850;2023-08-20T01:32:04;22.27;;;14.80;;
32333;SDS011;18810;53.040;8.850;2023-08-20T01:34:30;21.80;;;15.18;;
32333;SDS011;18810;53.040;8.850;2023-08-20T01:36:57;22.77;;;15.85;;
32333;SDS011;18810;53.040;8.850;2023-08-20T01:39:22;19.92;;;15.07;;
32333;SDS011;18810;53.040;8.850;2023-08-20T01:41:48;22.00;;;15.07;;
32333;SDS011;18810;53.040;8.850;2023-08-20T01:44:14;20.83;;;15.60;;
32333;SDS011;18810;53.040;8.850;2023-08-20T01:46:40;23.52;;;15.95;;
32333;SDS011;18810;53.040;8.850;2023-08-20T01:49:06;23.63;;;16.58;;
32333;SDS011;18810;53.040;8.850;2023-08-20T01:51:32;23.13;;;16.08;;
32333;SDS011;18810;53.040;8.850;2023-08-20T01:53:58;28.05;;;19.33;;
32333;SDS011;18810;53.040;8.850;2023-08-20T01:56:23;25.65;;;17.25;;
32333;SDS011;18810;53.040;8.850;2023-08-20T01:58:49;20.27;;;16.33;;
32333;SDS011;18810;53.040;8.850;2023-08-20T02:01:15;19.58;;;15.45;;
32333;SDS011;18810;53.040;8.850;2023-08-20T02:03:40;21.75;;;16.05;;
32333;SDS011;18810;53.040;8.850;2023-08-20T02:06:06;25.95;;;16.98;;
32333;SDS011;18810;53.040;8.850;2023-08-20T02:08:32;22.92;;;14.80;;
32333;SDS011;18810;53.040;8.850;2023-08-20T02:11:04;20.30;;;14.63;;
32333;SDS011;18810;53.040;8.850;2023-08-20T02:13:33;23.63;;;15.02;;
32333;SDS011;18810;53.040;8.850;2023-08-20T02:16:02;21.58;;;15.70;;
32333;SDS011;18810;53.040;8.850;2023-08-20T02:18:29;24.10;;;15.53;;
32333;SDS011;18810;53.040;8.850;2023-08-20T02:20:55;20.58;;;14.55;;
32333;SDS011;18810;53.040;8.850;2023-08-20T02:23:21;20.92;;;15.27;;
32333;SDS011;18810;53.040;8.850;2023-08-20T02:25:47;18.88;;;14.57;;
32333;SDS011;18810;53.040;8.850;2023-08-20T02:28:13;18.23;;;13.65;;
32333;SDS011;18810;53.040;8.850;2023-08-20T02:30:40;21.05;;;14.13;;
32333;SDS011;18810;53.040;8.850;2023-08-20T02:33:07;18.77;;;12.73;;
32333;SDS011;18810;53.040;8.850;2023-08-20T02:35:32;21.67;;;14.35;;
32333;SDS011;18810;53.040;8.850;2023-08-20T02:37:58;17.63;;;13.60;;
32333;SDS011;18810;53.040;8.850;2023-08-20T02:40:24;18.55;;;12.75;;
32333;SDS011;18810;53.040;8.850;2023-08-20T02:42:49;19.70;;;13.02;;
32333;SDS011;18810;53.040;8.850;2023-08-20T02:45:15;17.48;;;12.95;;
32333;SDS011;18810;53.040;8.850;2023-08-20T02:47:41;17.42;;;11.93;;
32333;SDS011;18810;53.040;8.850;2023-08-20T02:50:07;17.92;;;12.60;;
32333;SDS011;18810;53.040;8.850;2023-08-20T02:52:33;17.77;;;11.38;;
32333;SDS011;18810;53.040;8.850;2023-08-20T02:54:58;18.50;;;12.15;;
32333;SDS011;18810;53.040;8.850;2023-08-20T02:57:24;15.98;;;12.52;;
32333;SDS011;18810;53.040;8.850;2023-08-20T02:59:50;16.65;;;11.25;;
32333;SDS011;18810;53.040;8.850;2023-08-20T03:02:15;17.67;;;12.20;;
32333;SDS011;18810;53.040;8.850;2023-08-20T03:04:41;16.27;;;11.77;;
32333;SDS011;18810;53.040;8.850;2023-08-20T03:07:07;15.13;;;11.68;;
32333;SDS011;18810;53.040;8.850;2023-08-20T03:09:32;20.27;;;12.93;;
32333;SDS011;18810;53.040;8.850;2023-08-20T03:11:58;18.05;;;11.70;;
32333;SDS011;18810;53.040;8.850;2023-08-20T03:14:24;19.23;;;11.75;;
32333;SDS011;18810;53.040;8.850;2023-08-20T03:16:49;19.80;;;12.25;;
32333;SDS011;18810;53.040;8.850;2023-08-20T03:19:15;16.95;;;11.98;;
32333;SDS011;18810;53.040;8.850;2023-08-20T03:21:41;18.63;;;11.77;;
32333;SDS011;18810;53.040;8.850;2023-08-20T03:24:07;18.17;;;11.30;;
32333;SDS011;18810;53.040;8.850;2023-08-20T03:26:33;15.68;;;11.30;;
32333;SDS011;18810;53.040;8.850;2023-08-20T03:28:58;16.42;;;11.32;;
32333;SDS011;18810;53.040;8.850;2023-08-20T03:31:24;17.65;;;11.68;;
32333;SDS011;18810;53.040;8.850;2023-08-20T03:33:50;14.48;;;10.80;;
32333;SDS011;18810;53.040;8.850;2023-08-20T03:36:16;16.27;;;11.02;;
32333;SDS011;18810;53.040;8.850;2023-08-20T03:38:42;16.05;;;11.05;;
32333;SDS011;18810;53.040;8.850;2023-08-20T03:41:07;13.05;;;10.18;;
32333;SDS011;18810;53.040;8.850;2023-08-20T03:43:33;12.95;;;10.20;;
32333;SDS011;18810;53.040;8.850;2023-08-20T03:45:59;15.30;;;10.88;;
32333;SDS011;18810;53.040;8.850;2023-08-20T03:48:24;13.85;;;10.50;;
32333;SDS011;18810;53.040;8.850;2023-08-20T03:50:50;14.60;;;10.48;;
32333;SDS011;18810;53.040;8.850;2023-08-20T03:53:16;13.18;;;10.43;;
32333;SDS011;18810;53.040;8.850;2023-08-20T03:55:41;15.55;;;10.35;;
32333;SDS011;18810;53.040;8.850;2023-08-20T03:58:15;17.08;;;10.55;;
32333;SDS011;18810;53.040;8.850;2023-08-20T04:00:41;16.83;;;11.25;;
32333;SDS011;18810;53.040;8.850;2023-08-20T04:03:08;19.63;;;10.90;;
32333;SDS011;18810;53.040;8.850;2023-08-20T04:05:37;19.40;;;11.43;;
32333;SDS011;18810;53.040;8.850;2023-08-20T04:08:03;17.17;;;11.52;;
32333;SDS011;18810;53.040;8.850;2023-08-20T04:10:29;17.17;;;11.27;;
32333;SDS011;18810;53.040;8.850;2023-08-20T04:12:56;17.25;;;11.20;;
32333;SDS011;18810;53.040;8.850;2023-08-20T04:15:21;19.88;;;11.52;;
32333;SDS011;18810;53.040;8.850;2023-08-20T04:17:47;17.02;;;10.73;;
32333;SDS011;18810;53.040;8.850;2023-08-20T04:20:14;24.05;;;13.70;;
32333;SDS011;18810;53.040;8.850;2023-08-20T04:22:40;22.45;;;12.93;;
32333;SDS011;18810;53.040;8.850;2023-08-20T04:25:06;15.20;;;11.48;;
32333;SDS011;18810;53.040;8.850;2023-08-20T04:27:32;16.88;;;11.95;;
32333;SDS011;18810;53.040;8.850;2023-08-20T04:29:58;19.42;;;12.52;;
32333;SDS011;18810;53.040;8.850;2023-08-20T04:32:24;18.35;;;11.93;;
32333;SDS011;18810;53.040;8.850;2023-08-20T04:34:50;18.45;;;11.70;;
32333;SDS011;18810;53.040;8.850;2023-08-20T04:37:20;22.63;;;13.10;;
32333;SDS011;18810;53.040;8.850;2023-08-20T04:39:45;18.55;;;12.27;;
32333;SDS011;18810;53.040;8.850;2023-08-20T04:42:11;16.00;;;12.27;;
32333;SDS011;18810;53.040;8.850;2023-08-20T04:44:37;16.90;;;11.60;;
32333;SDS011;18810;53.040;8.850;2023-08-20T04:47:02;17.23;;;12.27;;
32333;SDS011;18810;53.040;8.850;2023-08-20T04:49:28;22.77;;;12.15;;
32333;SDS011;18810;53.040;8.850;2023-08-20T04:51:55;18.30;;;12.00;;
32333;SDS011;18810;53.040;8.850;2023-08-20T04:54:20;15.88;;;12.05;;
32333;SDS011;18810;53.040;8.850;2023-08-20T04:56:46;19.63;;;12.30;;
32333;SDS011;18810;53.040;8.850;2023-08-20T04:59:12;18.75;;;12.85;;
32333;SDS011;18810;53.040;8.850;2023-08-20T05:01:38;19.17;;;12.88;;
32333;SDS011;18810;53.040;8.850;2023-08-20T05:04:04;18.15;;;12.65;;
32333;SDS011;18810;53.040;8.850;2023-08-20T05:06:30;19.85;;;14.35;;
32333;SDS011;18810;53.040;8.850;2023-08-20T05:08:56;21.15;;;13.80;;
32333;SDS011;18810;53.040;8.850;2023-08-20T05:11:21;21.38;;;13.75;;
32333;SDS011;18810;53.040;8.850;2023-08-20T05:13:48;20.33;;;13.35;;
32333;SDS011;18810;53.040;8.850;2023-08-20T05:16:14;21.45;;;13.40;;
32333;SDS011;18810;53.040;8.850;2023-08-20T05:18:40;20.15;;;13.13;;
32333;SDS011;18810;53.040;8.850;2023-08-20T05:21:07;17.20;;;11.93;;
32333;SDS011;18810;53.040;8.850;2023-08-20T05:23:32;20.70;;;13.05;;
32333;SDS011;18810;53.040;8.850;2023-08-20T05:25:58;19.85;;;13.77;;
32333;SDS011;18810;53.040;8.850;2023-08-20T05:28:24;26.33;;;14.73;;
32333;SDS011;18810;53.040;8.850;2023-08-20T05:30:55;18.13;;;13.32;;
32333;SDS011;18810;53.040;8.850;2023-08-20T05:33:22;20.25;;;13.60;;
32333;SDS011;18810;53.040;8.850;2023-08-20T05:35:48;23.92;;;13.45;;
32333;SDS011;18810;53.040;8.850;2023-08-20T05:38:14;19.63;;;13.65;;
32333;SDS011;18810;53.040;8.850;2023-08-20T05:40:40;16.17;;;12.07;;
32333;SDS011;18810;53.040;8.850;2023-08-20T05:43:06;19.58;;;13.75;;
32333;SDS011;18810;53.040;8.850;2023-08-20T05:45:32;19.00;;;13.07;;
32333;SDS011;18810;53.040;8.850;2023-08-20T05:47:58;19.45;;;14.18;;
32333;SDS011;18810;53.040;8.850;2023-08-20T05:50:23;20.30;;;14.27;;
32333;SDS011;18810;53.040;8.850;2023-08-20T05:52:49;24.23;;;12.50;;
32333;SDS011;18810;53.040;8.850;2023-08-20T05:55:15;17.85;;;12.48;;
32333;SDS011;18810;53.040;8.850;2023-08-20T05:57:41;15.68;;;11.63;;
32333;SDS011;18810;53.040;8.850;2023-08-20T06:00:08;22.38;;;13.98;;
32333;SDS011;18810;53.040;8.850;2023-08-20T06:02:34;17.17;;;11.95;;
32333;SDS011;18810;53.040;8.850;2023-08-20T06:05:00;18.98;;;11.88;;
32333;SDS011;18810;53.040;8.850;2023-08-20T06:07:26;19.13;;;11.68;;
32333;SDS011;18810;53.040;8.850;2023-08-20T06:09:52;16.90;;;11.40;;
32333;SDS011;18810;53.040;8.850;2023-08-20T06:12:17;17.20;;;11.80;;
32333;SDS011;18810;53.040;8.850;2023-08-20T06:14:43;16.55;;;10.38;;
32333;SDS011;18810;53.040;8.850;2023-08-20T06:17:09;13.27;;;9.07;;
32333;SDS011;18810;53.040;8.850;2023-08-20T06:19:35;14.60;;;10.85;;
32333;SDS011;18810;53.040;8.850;2023-08-20T06:22:01;12.55;;;8.95;;
32333;SDS011;18810;53.040;8.850;2023-08-20T06:24:27;12.75;;;8.68;;
32333;SDS011;18810;53.040;8.850;2023-08-20T06:26:53;17.15;;;10.15;;
32333;SDS011;18810;53.040;8.850;2023-08-20T06:29:19;13.45;;;9.70;;
32333;SDS011;18810;53.040;8.850;2023-08-20T06:31:46;12.35;;;9.27;;
32333;SDS011;18810;53.040;8.850;2023-08-20T06:34:13;13.73;;;9.90;;
32333;SDS011;18810;53.040;8.850;2023-08-20T06:36:38;11.82;;;8.75;;
32333;SDS011;18810;53.040;8.850;2023-08-20T06:39:04;12.88;;;8.98;;
32333;SDS011;18810;53.040;8.850;2023-08-20T06:41:30;14.60;;;9.15;;
32333;SDS011;18810;53.040;8.850;2023-08-20T06:43:56;15.02;;;7.75;;
32333;SDS011;18810;53.040;8.850;2023-08-20T06:46:21;10.35;;;7.80;;
32333;SDS011;18810;53.040;8.850;2023-08-20T06:48:47;11.75;;;7.63;;
32333;SDS011;18810;53.040;8.850;2023-08-20T06:51:13;11.57;;;7.88;;
32333;SDS011;18810;53.040;8.850;2023-08-20T06:53:40;10.30;;;7.97;;
32333;SDS011;18810;53.040;8.850;2023-08-20T06:56:09;11.25;;;7.00;;
32333;SDS011;18810;53.040;8.850;2023-08-20T06:58:36;11.52;;;6.80;;
32333;SDS011;18810;53.040;8.850;2023-08-20T07:01:03;10.38;;;7.20;;
32333;SDS011;18810;53.040;8.850;2023-08-20T07:03:35;8.98;;;6.93;;
32333;SDS011;18810;53.040;8.850;2023-08-20T07:06:02;10.90;;;6.65;;
32333;SDS011;18810;53.040;8.850;2023-08-20T07:08:28;10.52;;;5.78;;
32333;SDS011;18810;53.040;8.850;2023-08-20T07:10:54;9.77;;;6.20;;
32333;SDS011;18810;53.040;8.850;2023-08-20T07:13:20;8.70;;;5.80;;
32333;SDS011;18810;53.040;8.850;2023-08-20T07:15:45;12.80;;;6.43;;
32333;SDS011;18810;53.040;8.850;2023-08-20T07:18:11;12.23;;;6.72;;
32333;SDS011;18810;53.040;8.850;2023-08-20T07:20:44;11.27;;;5.22;;
32333;SDS011;18810;53.040;8.850;2023-08-20T07:23:10;13.32;;;5.90;;
32333;SDS011;18810;53.040;8.850;2023-08-20T07:25:37;10.68;;;5.70;;
32333;SDS011;18810;53.040;8.850;2023-08-20T07:28:07;7.95;;;4.88;;
32333;SDS011;18810;53.040;8.850;2023-08-20T07:30:33;9.88;;;5.53;;
32333;SDS011;18810;53.040;8.850;2023-08-20T07:32:59;8.18;;;4.40;;
32333;SDS011;18810;53.040;8.850;2023-08-20T07:35:25;6.95;;;3.92;;
32333;SDS011;18810;53.040;8.850;2023-08-20T07:37:51;10.90;;;5.30;;
32333;SDS011;18810;53.040;8.850;2023-08-20T07:40:16;10.57;;;4.65;;
32333;SDS011;18810;53.040;8.850;2023-08-20T07:42:42;10.18;;;4.38;;
32333;SDS011;18810;53.040;8.850;2023-08-20T07:45:08;8.45;;;3.72;;
32333;SDS011;18810;53.040;8.850;2023-08-20T07:47:37;11.32;;;5.10;;
32333;SDS011;18810;53.040;8.850;2023-08-20T07:50:04;6.93;;;4.10;;
32333;SDS011;18810;53.040;8.850;2023-08-20T07:52:30;9.05;;;3.88;;
32333;SDS011;18810;53.040;8.850;2023-08-20T07:54:57;7.32;;;3.67;;
32333;SDS011;18810;53.040;8.850;2023-08-20T07:57:23;11.13;;;3.47;;
32333;SDS011;18810;53.040;8.850;2023-08-20T07:59:51;6.47;;;3.10;;
32333;SDS011;18810;53.040;8.850;2023-08-20T08:02:17;9.27;;;4.00;;
32333;SDS011;18810;53.040;8.850;2023-08-20T08:04:43;7.97;;;3.75;;
32333;SDS011;18810;53.040;8.850;2023-08-20T08:07:10;9.35;;;3.90;;
32333;SDS011;18810;53.040;8.850;2023-08-20T08:09:36;9.75;;;3.70;;
32333;SDS011;18810;53.040;8.850;2023-08-20T08:12:02;7.90;;;3.97;;
32333;SDS011;18810;53.040;8.850;2023-08-20T08:14:29;6.55;;;3.15;;
32333;SDS011;18810;53.040;8.850;2023-08-20T08:16:55;6.57;;;2.97;;
32333;SDS011;18810;53.040;8.850;2023-08-20T08:19:20;6.38;;;2.92;;
32333;SDS011;18810;53.040;8.850;2023-08-20T08:21:46;6.50;;;2.50;;
32333;SDS011;18810;53.040;8.850;2023-08-20T08:24:12;5.00;;;2.70;;
32333;SDS011;18810;53.040;8.850;2023-08-20T08:26:39;5.85;;;2.60;;
32333;SDS011;18810;53.040;8.850;2023-08-20T08:29:05;6.07;;;2.95;;
32333;SDS011;18810;53.040;8.850;2023-08-20T08:31:32;7.82;;;2.75;;
32333;SDS011;18810;53.040;8.850;2023-08-20T08:33:58;13.43;;;3.80;;
32333;SDS011;18810;53.040;8.850;2023-08-20T08:36:24;8.48;;;3.20;;
32333;SDS011;18810;53.040;8.850;2023-08-20T08:38:50;5.75;;;3.03;;
32333;SDS011;18810;53.040;8.850;2023-08-20T08:41:16;5.93;;;2.53;;
32333;SDS011;18810;53.040;8.850;2023-08-20T08:43:43;8.18;;;2.85;;
32333;SDS011;18810;53.040;8.850;2023-08-20T08:46:14;7.20;;;3.35;;
32333;SDS011;18810;53.040;8.850;2023-08-20T08:48:41;8.18;;;3.45;;
32333;SDS011;18810;53.040;8.850;2023-08-20T08:51:08;8.15;;;3.53;;
32333;SDS011;18810;53.040;8.850;2023-08-20T08:53:34;8.90;;;3.83;;
32333;SDS011;18810;53.040;8.850;2023-08-20T08:56:01;9.43;;;3.30;;
32333;SDS011;18810;53.040;8.850;2023-08-20T08:58:28;7.80;;;4.05;;
32333;SDS011;18810;53.040;8.850;2023-08-20T09:00:53;9.60;;;3.97;;
32333;SDS011;18810;53.040;8.850;2023-08-20T09:03:22;8.13;;;4.20;;
32333;SDS011;18810;53.040;8.850;2023-08-20T09:05:50;9.15;;;4.03;;
32333;SDS011;18810;53.040;8.850;2023-08-20T09:08:28;10.23;;;4.32;;
32333;SDS011;18810;53.040;8.850;2023-08-20T09:10:56;11.45;;;4.28;;
32333;SDS011;18810;53.040;8.850;2023-08-20T09:13:33;8.35;;;4.38;;
32333;SDS011;18810;53.040;8.850;2023-08-20T09:16:08;8.10;;;3.80;;
32333;SDS011;18810;53.040;8.850;2023-08-20T09:18:44;8.27;;;3.80;;
32333;SDS011;18810;53.040;8.850;2023-08-20T09:21:12;6.35;;;3.35;;
32333;SDS011;18810;53.040;8.850;2023-08-20T09:23:38;9.48;;;4.50;;
32333;SDS011;18810;53.040;8.850;2023-08-20T09:26:05;8.00;;;4.80;;
32333;SDS011;18810;53.040;8.850;2023-08-20T09:28:42;10.63;;;4.25;;
32333;SDS011;18810;53.040;8.850;2023-08-20T09:31:09;7.35;;;4.05;;
32333;SDS011;18810;53.040;8.850;2023-08-20T09:33:36;6.93;;;4.07;;
32333;SDS011;18810;53.040;8.850;2023-08-20T09:36:04;9.23;;;4.45;;
32333;SDS011;18810;53.040;8.850;2023-08-20T09:38:36;7.72;;;3.95;;
32333;SDS011;18810;53.040;8.850;2023-08-20T09:41:04;7.22;;;4.00;;
32333;SDS011;18810;53.040;8.850;2023-08-20T09:43:33;6.88;;;4.07;;
32333;SDS011;18810;53.040;8.850;2023-08-20T09:46:03;7.03;;;3.97;;
32333;SDS011;18810;53.040;8.850;2023-08-20T09:48:33;6.88;;;3.80;;
32333;SDS011;18810;53.040;8.850;2023-08-20T09:51:04;9.70;;;4.18;;
32333;SDS011;18810;53.040;8.850;2023-08-20T09:53:35;7.50;;;4.68;;
32333;SDS011;18810;53.040;8.850;2023-08-20T09:56:13;7.47;;;4.28;;
32333;SDS011;18810;53.040;8.850;2023-08-20T09:58:45;11.32;;;3.83;;
32333;SDS011;18810;53.040;8.850;2023-08-20T10:01:13;6.63;;;3.80;;
32333;SDS011;18810;53.040;8.850;2023-08-20T10:03:40;8.75;;;4.05;;
32333;SDS011;18810;53.040;8.850;2023-08-20T10:06:08;8.82;;;5.00;;
32333;SDS011;18810;53.040;8.850;2023-08-20T10:08:34;8.35;;;4.20;;
32333;SDS011;18810;53.040;8.850;2023-08-20T10:11:01;8.52;;;4.80;;
32333;SDS011;18810;53.040;8.850;2023-08-20T10:13:27;7.07;;;4.40;;
32333;SDS011;18810;53.040;8.850;2023-08-20T10:15:53;10.68;;;5.07;;
32333;SDS011;18810;53.040;8.850;2023-08-20T10:18:20;9.35;;;4.82;;
32333;SDS011;18810;53.040;8.850;2023-08-20T10:20:49;10.55;;;4.55;;
32333;SDS011;18810;53.040;8.850;2023-08-20T10:23:15;9.43;;;5.22;;
32333;SDS011;18810;53.040;8.850;2023-08-20T10:25:48;6.93;;;4.80;;
32333;SDS011;18810;53.040;8.850;2023-08-20T10:28:19;7.88;;;5.03;;
32333;SDS011;18810;53.040;8.850;2023-08-20T10:31:06;9.43;;;4.85;;
32333;SDS011;18810;53.040;8.850;2023-08-20T10:33:57;8.38;;;4.53;;
32333;SDS011;18810;53.040;8.850;2023-08-20T10:36:23;11.38;;;5.30;;
32333;SDS011;18810;53.040;8.850;2023-08-20T10:38:56;7.80;;;4.43;;
32333;SDS011;18810;53.040;8.850;2023-08-20T10:41:30;7.18;;;4.70;;
32333;SDS011;18810;53.040;8.850;2023-08-20T10:43:59;11.13;;;6.80;;
32333;SDS011;18810;53.040;8.850;2023-08-20T10:46:28;10.50;;;4.95;;
32333;SDS011;18810;53.040;8.850;2023-08-20T10:49:01;9.57;;;5.22;;
32333;SDS011;18810;53.040;8.850;2023-08-20T10:51:28;6.95;;;4.97;;
32333;SDS011;18810;53.040;8.850;2023-08-20T10:59:17;8.57;;;5.05;;
32333;SDS011;18810;53.040;8.850;2023-08-20T11:01:47;8.25;;;4.45;;
32333;SDS011;18810;53.040;8.850;2023-08-20T11:04:16;7.68;;;4.20;;
32333;SDS011;18810;53.040;8.850;2023-08-20T11:06:44;9.32;;;4.70;;
32333;SDS011;18810;53.040;8.850;2023-08-20T11:09:11;9.77;;;5.20;;
32333;SDS011;18810;53.040;8.850;2023-08-20T11:11:40;8.48;;;4.47;;
32333;SDS011;18810;53.040;8.850;2023-08-20T11:14:07;9.30;;;5.10;;
32333;SDS011;18810;53.040;8.850;2023-08-20T11:16:38;7.18;;;4.65;;
32333;SDS011;18810;53.040;8.850;2023-08-20T11:19:05;7.28;;;4.97;;
32333;SDS011;18810;53.040;8.850;2023-08-20T11:21:42;8.93;;;4.30;;
32333;SDS011;18810;53.040;8.850;2023-08-20T11:24:09;10.00;;;5.35;;
32333;SDS011;18810;53.040;8.850;2023-08-20T11:26:35;9.27;;;4.88;;
32333;SDS011;18810;53.040;8.850;2023-08-20T11:29:07;7.20;;;4.13;;
32333;SDS011;18810;53.040;8.850;2023-08-20T11:31:44;7.25;;;4.32;;
32333;SDS011;18810;53.040;8.850;2023-08-20T11:34:11;7.93;;;5.03;;
32333;SDS011;18810;53.040;8.850;2023-08-20T11:36:38;6.53;;;4.00;;
32333;SDS011;18810;53.040;8.850;2023-08-20T11:39:04;8.88;;;4.68;;
32333;SDS011;18810;53.040;8.850;2023-08-20T11:41:33;6.82;;;3.95;;
32333;SDS011;18810;53.040;8.850;2023-08-20T11:44:01;7.65;;;4.45;;
32333;SDS011;18810;53.040;8.850;2023-08-20T11:46:28;8.88;;;4.57;;
32333;SDS011;18810;53.040;8.850;2023-08-20T11:49:07;9.65;;;4.40;;
32333;SDS011;18810;53.040;8.850;2023-08-20T11:51:35;7.68;;;4.70;;
32333;SDS011;18810;53.040;8.850;2023-08-20T11:54:06;10.25;;;5.00;;
32333;SDS011;18810;53.040;8.850;2023-08-20T11:56:42;7.55;;;4.75;;
32333;SDS011;18810;53.040;8.850;2023-08-20T11:59:10;7.53;;;4.30;;
32333;SDS011;18810;53.040;8.850;2023-08-20T12:01:36;5.15;;;3.50;;
32333;SDS011;18810;53.040;8.850;2023-08-20T12:04:09;7.07;;;3.97;;
32333;SDS011;18810;53.040;8.850;2023-08-20T12:06:36;6.93;;;3.97;;
32333;SDS011;18810;53.040;8.850;2023-08-20T12:09:18;5.95;;;3.55;;
32333;SDS011;18810;53.040;8.850;2023-08-20T12:11:51;8.02;;;4.10;;
32333;SDS011;18810;53.040;8.850;2023-08-20T12:14:17;5.97;;;4.40;;
32333;SDS011;18810;53.040;8.850;2023-08-20T12:16:43;6.35;;;3.83;;
32333;SDS011;18810;53.040;8.850;2023-08-20T12:19:10;8.77;;;4.22;;
32333;SDS011;18810;53.040;8.850;2023-08-20T12:21:35;7.25;;;4.13;;
32333;SDS011;18810;53.040;8.850;2023-08-20T12:24:01;5.90;;;4.30;;
32333;SDS011;18810;53.040;8.850;2023-08-20T12:26:28;6.53;;;4.32;;
32333;SDS011;18810;53.040;8.850;2023-08-20T12:28:54;5.97;;;3.20;;
32333;SDS011;18810;53.040;8.850;2023-08-20T12:31:20;5.50;;;3.00;;
32333;SDS011;18810;53.040;8.850;2023-08-20T12:33:45;10.52;;;3.97;;
32333;SDS011;18810;53.040;8.850;2023-08-20T12:36:11;5.88;;;3.10;;
32333;SDS011;18810;53.040;8.850;2023-08-20T12:38:37;7.18;;;4.00;;
32333;SDS011;18810;53.040;8.850;2023-08-20T12:41:03;7.18;;;3.45;;
32333;SDS011;18810;53.040;8.850;2023-08-20T12:43:30;5.72;;;3.25;;
32333;SDS011;18810;53.040;8.850;2023-08-20T12:45:56;7.80;;;3.55;;
32333;SDS011;18810;53.040;8.850;2023-08-20T12:48:22;7.85;;;3.60;;
32333;SDS011;18810;53.040;8.850;2023-08-20T12:50:47;8.38;;;3.45;;
32333;SDS011;18810;53.040;8.850;2023-08-20T12:53:13;5.88;;;3.30;;
32333;SDS011;18810;53.040;8.850;2023-08-20T12:55:39;9.23;;;3.78;;
32333;SDS011;18810;53.040;8.850;2023-08-20T12:58:04;4.65;;;2.88;;
32333;SDS011;18810;53.040;8.850;2023-08-20T13:00:30;4.78;;;3.38;;
32333;SDS011;18810;53.040;8.850;2023-08-20T13:02:56;6.22;;;3.45;;
32333;SDS011;18810;53.040;8.850;2023-08-20T13:05:22;7.70;;;3.90;;
32333;SDS011;18810;53.040;8.850;2023-08-20T13:07:49;8.60;;;3.60;;
32333;SDS011;18810;53.040;8.850;2023-08-20T13:10:15;4.18;;;2.90;;
32333;SDS011;18810;53.040;8.850;2023-08-20T13:12:41;5.95;;;3.28;;
32333;SDS011;18810;53.040;8.850;2023-08-20T13:15:09;7.38;;;3.45;;
32333;SDS011;18810;53.040;8.850;2023-08-20T13:17:35;5.18;;;3.47;;
32333;SDS011;18810;53.040;8.850;2023-08-20T13:20:02;5.95;;;3.55;;
32333;SDS011;18810;53.040;8.850;2023-08-20T13:22:30;6.63;;;2.97;;
32333;SDS011;18810;53.040;8.850;2023-08-20T13:24:56;6.78;;;2.97;;
32333;SDS011;18810;53.040;8.850;2023-08-20T13:27:21;6.65;;;2.88;;
32333;SDS011;18810;53.040;8.850;2023-08-20T13:29:47;5.18;;;3.00;;
32333;SDS011;18810;53.040;8.850;2023-08-20T13:32:13;4.55;;;2.90;;
32333;SDS011;18810;53.040;8.850;2023-08-20T13:34:38;6.20;;;3.28;;
32333;SDS011;18810;53.040;8.850;2023-08-20T13:37:04;5.03;;;2.97;;
32333;SDS011;18810;53.040;8.850;2023-08-20T13:39:30;7.35;;;2.97;;
32333;SDS011;18810;53.040;8.850;2023-08-20T13:41:55;6.40;;;3.53;;
32333;SDS011;18810;53.040;8.850;2023-08-20T13:44:21;6.93;;;3.63;;
32333;SDS011;18810;53.040;8.850;2023-08-20T13:46:47;4.05;;;2.88;;
32333;SDS011;18810;53.040;8.850;2023-08-20T13:49:12;5.90;;;3.25;;
32333;SDS011;18810;53.040;8.850;2023-08-20T13:51:38;5.05;;;3.38;;
32333;SDS011;18810;53.040;8.850;2023-08-20T13:54:04;4.07;;;3.00;;
32333;SDS011;18810;53.040;8.850;2023-08-20T13:56:30;5.53;;;3.20;;
32333;SDS011;18810;53.040;8.850;2023-08-20T13:58:55;6.15;;;4.00;;
32333;SDS011;18810;53.040;8.850;2023-08-20T14:01:21;5.15;;;3.15;;
32333;SDS011;18810;53.040;8.850;2023-08-20T14:03:47;5.85;;;3.40;;
32333;SDS011;18810;53.040;8.850;2023-08-20T14:06:14;6.45;;;2.88;;
32333;SDS011;18810;53.040;8.850;2023-08-20T14:08:40;4.93;;;3.35;;
32333;SDS011;18810;53.040;8.850;2023-08-20T14:11:06;4.30;;;2.97;;
32333;SDS011;18810;53.040;8.850;2023-08-20T14:13:31;7.05;;;3.38;;
32333;SDS011;18810;53.040;8.850;2023-08-20T14:15:57;5.50;;;3.58;;
32333;SDS011;18810;53.040;8.850;2023-08-20T14:18:23;5.78;;;3.15;;
32333;SDS011;18810;53.040;8.850;2023-08-20T14:20:49;5.90;;;3.42;;
32333;SDS011;18810;53.040;8.850;2023-08-20T14:23:14;5.97;;;3.35;;
32333;SDS011;18810;53.040;8.850;2023-08-20T14:25:40;6.78;;;3.40;;
32333;SDS011;18810;53.040;8.850;2023-08-20T14:28:06;5.07;;;3.13;;
32333;SDS011;18810;53.040;8.850;2023-08-20T14:30:36;6.15;;;3.45;;
32333;SDS011;18810;53.040;8.850;2023-08-20T14:33:03;5.05;;;3.08;;
32333;SDS011;18810;53.040;8.850;2023-08-20T14:35:29;6.57;;;3.33;;
32333;SDS011;18810;53.040;8.850;2023-08-20T14:37:55;4.88;;;2.97;;
32333;SDS011;18810;53.040;8.850;2023-08-20T14:40:21;4.43;;;2.85;;
32333;SDS011;18810;53.040;8.850;2023-08-20T14:42:48;7.85;;;3.88;;
32333;SDS011;18810;53.040;8.850;2023-08-20T14:45:13;5.50;;;3.13;;
32333;SDS011;18810;53.040;8.850;2023-08-20T14:47:39;4.03;;;3.13;;